Aérodrome :
LOGIN :

S'inscrire | Disclaimer

   EN    FR    IT 

 










Légende :    VFR   VFR Marginal   IFR   IFR Intensif   IFR Très Intensif
Visi : 
Plafond : 
>= 8 km
>= 3000ft
5 à 8 km
1000 à 3000 ft
1500m à 5 km
500 à 1000 ft
800 à 1500m
200 à 500 ft
< 800m
< 200 ft
Symboles :   Orages  Brouillard  Fortes neiges  Fortes précipitations  Vent > 20 kt
SIGMETs :   Divers  Orages  Givrage  Turbulence  Onde Orograph.  Cendres Volcan.







- Altitude de l'aérodrome : 197 ft
- Code IATA : XOG
- Voir les cartes d'approche


LFMO - Orange

DERNIER METAR :
  • 142200Z AUTO 00000KT 6000 FEW028 SCT056 11/10 Q1025 BECMG 3000 BR

METARs EXPIRÉS :
  • 142130Z AUTO 00000KT 7000 FEW016 BKN054 11/11 Q1025 BECMG 3000 BR
  • 142100Z AUTO VRB01KT 7000 OVC014 11/11 Q1025 BECMG SCT040
  • 142030Z AUTO 02002KT 7000 NSC 10/10 Q1025 NOSIG
  • 142000Z AUTO 02003KT 7000 NSC 11/11 Q1025 NOSIG
  • 141930Z AUTO 00000KT 6000 NSC 10/09 Q1025 NOSIG

TAF TAF LFMO
Valide du 14 à 21h jusqu'au 15 à 21h UTC


142000Z 1421/1521 VRB02KT 6000 SCT040
BECMG 1423/1501 3000 BR
TEMPO 1502/1508 0500 FG BKN002
PROB30
TEMPO 1503/1507 0200 FG VV///
BECMG 1508/1510 8000 NSW SCT015
Pas de NOTAMs connus pour ce terrain.



MET'MAP, la Météo Aéronautique d'un coup d'oeil ! - Copyright ORBIFLY Décembre 2007 - Disclaimer

ORBIFLY MET'MAP TEAM :

Programmation & Développement : Alexandra Zaïnal
Conception & Développement : Baudouin d'Aumeries
Co-Programmation & Développement : Marc-Olivier Méhu
Soutien technique & logistique : Manuel Goepfert

Contact : metmap@orbifly.com




SOURCES & CREDITS :

   NOAA